Pagrindinis puslapis
METAR-TAF:

METAR-TAF

Oro uostai :

David Wayne Hooks Memorial Airport

Hiustonas-Tomball, Teksasas, Jungtinės Amerikos Valstijos

platuma: 30-04-03N, ilguma: 095-33-22W, Aukštis: 46 m

Dabartinis oras

Ataskaita buvo paskelbta 16 minutes, ne 06:15 UTC
Ramus vėjas
Temperatūra 19°C
Drėgmė 94%
Slėgis 1013 hPa
Matomumas: 2.8 km
Giedras dangus
rūkana

METAR: KDWH 270615Z AUTO 00000KT 1 3/4SM BR CLR 19/18 A2990 RMK AO2 T01940178

Laikas: 01:31 (06:31 UTC)


TAF: trūkstamas

Orai ataskaitas ir orų prognozės (METAR, TAF).

turimą stotys yra geltonos ir raudonos taškus žemėlapyje.

Perkelti pele per norėdami pamatyti stoties vardą.

Tada spustelėkite, norėdami matyti oro stebėjimo ir prognozės.

Norėdami pakeisti žemėlapį: spustelėkite ant žalios mygtukų su juodo kryžiaus žemyn,; žalią mygtuką su brūkšneliu, jei norite nutolinti; arba žalių rodyklių gretimoms žemėlapius.


METAR-TAF: